Time;durP1;ratioP1;P1;durP2;ratioP2;P2;SDS_P1;SDS_P2;PMS_P1;PMS_P2;Temp;Humidity;BMP_temperature;BMP_pressure;BME280_temperature;BME280_humidity;BME280_pressure;Samples;Min_cycle;Max_cycle;Signal;HPM_P1;HPM_P2
2021/06/27 00:01:24;;;;;;;13.57;11.65;;;20.60;67.50;;;;;;5069365;28;20031;-88
2021/06/27 00:03:51;;;;;;;11.90;10.05;;;20.50;67.60;;;;;;5070440;28;20126;-87
2021/06/27 00:06:17;;;;;;;12.07;10.55;;;20.50;67.50;;;;;;5060107;28;20475;-87
2021/06/27 00:08:42;;;;;;;14.65;12.68;;;20.50;67.50;;;;;;5069611;28;20043;-86
2021/06/27 00:11:10;;;;;;;14.25;12.48;;;20.50;68.00;;;;;;5069168;28;20017;-87
2021/06/27 00:13:37;;;;;;;14.23;12.63;;;20.40;68.60;;;;;;5066391;28;20414;-88
2021/06/27 00:16:04;;;;;;;12.48;10.77;;;20.40;68.80;;;;;;5070343;28;20036;-87
2021/06/27 00:18:30;;;;;;;14.07;12.55;;;20.40;68.80;;;;;;5068365;28;20119;-88
2021/06/27 00:20:58;;;;;;;15.50;13.10;;;20.30;69.30;;;;;;5068188;28;20025;-85
2021/06/27 00:23:29;;;;;;;14.70;12.60;;;20.30;69.70;;;;;;5069049;28;20410;-87
2021/06/27 00:25:56;;;;;;;12.05;10.20;;;20.20;70.10;;;;;;5067458;28;20029;-88
2021/06/27 00:28:21;;;;;;;11.00;9.25;;;20.20;69.60;;;;;;5068025;28;20021;-88
2021/06/27 00:30:49;;;;;;;11.48;10.10;;;20.20;69.50;;;;;;5069696;28;20494;-88
2021/06/27 00:33:15;;;;;;;13.05;10.98;;;20.20;69.50;;;;;;5068942;28;20025;-88
2021/06/27 00:35:41;;;;;;;11.27;9.52;;;20.20;69.50;;;;;;5069961;28;20047;-88
2021/06/27 00:38:07;;;;;;;12.75;10.93;;;20.20;69.50;;;;;;5063823;28;20108;-88
2021/06/27 00:40:34;;;;;;;12.95;11.00;;;20.20;69.70;;;;;;5069754;28;20032;-88
2021/06/27 00:43:00;;;;;;;15.18;13.43;;;20.20;69.60;;;;;;5068506;28;20028;-87
2021/06/27 00:45:27;;;;;;;17.67;15.70;;;20.20;70.30;;;;;;5069380;28;20044;-87
2021/06/27 00:47:54;;;;;;;18.20;14.90;;;20.10;70.80;;;;;;5069382;28;20058;-87
2021/06/27 00:50:29;;;;;;;11.45;10.25;;;20.10;71.30;;;;;;5069678;28;20032;-86
2021/06/27 00:52:55;;;;;;;14.63;11.95;;;20.10;70.90;;;;;;5069658;28;20071;-87
2021/06/27 00:55:20;;;;;;;11.60;10.00;;;20.10;70.60;;;;;;5069574;28;20048;-86
2021/06/27 00:57:49;;;;;;;16.45;13.77;;;20.10;70.30;;;;;;5066111;28;20103;-87
2021/06/27 01:00:23;;;;;;;17.85;15.38;;;20.10;70.70;;;;;;5065535;28;20054;-88
2021/06/27 01:02:50;;;;;;;15.35;13.55;;;20.10;71.10;;;;;;5068722;28;20078;-87
2021/06/27 01:05:18;;;;;;;19.15;17.05;;;20.10;71.00;;;;;;5069623;28;20039;-88
2021/06/27 01:07:44;;;;;;;20.88;18.20;;;20.10;71.70;;;;;;5069342;28;20082;-87
2021/06/27 01:10:11;;;;;;;13.88;12.38;;;20.00;72.20;;;;;;5069236;28;20111;-88
2021/06/27 01:12:37;;;;;;;16.70;13.98;;;20.00;71.80;;;;;;5069341;28;20020;-87
2021/06/27 01:15:07;;;;;;;11.30;9.90;;;20.00;71.80;;;;;;5067877;28;20105;-87
2021/06/27 01:17:33;;;;;;;13.68;12.02;;;20.00;71.50;;;;;;5063804;28;20025;-87
2021/06/27 01:19:59;;;;;;;13.30;11.63;;;20.10;71.40;;;;;;5069987;28;20028;-88
2021/06/27 01:22:26;;;;;;;12.55;11.02;;;20.10;71.30;;;;;;5066746;28;20027;-88
2021/06/27 01:24:51;;;;;;;14.50;11.82;;;20.10;71.20;;;;;;5069488;28;20046;-88
2021/06/27 01:27:17;;;;;;;13.18;11.05;;;20.10;71.30;;;;;;5065039;28;20099;-87
2021/06/27 01:29:43;;;;;;;14.63;12.75;;;20.00;71.30;;;;;;5068556;28;20031;-88
2021/06/27 01:32:11;;;;;;;16.67;14.38;;;20.00;71.50;;;;;;5068391;28;20028;-88
2021/06/27 01:34:40;;;;;;;16.13;12.95;;;19.90;72.20;;;;;;5068664;28;20051;-89
2021/06/27 01:37:06;;;;;;;17.77;15.32;;;19.90;72.20;;;;;;5062965;28;20025;-88
2021/06/27 01:39:33;;;;;;;19.42;15.68;;;19.80;73.00;;;;;;5067624;28;20021;-87
2021/06/27 01:41:59;;;;;;;17.10;14.65;;;19.80;73.00;;;;;;5069251;28;20056;-88
2021/06/27 01:44:24;;;;;;;20.02;16.98;;;19.80;73.40;;;;;;5069139;28;20125;-88
2021/06/27 01:46:50;;;;;;;16.63;13.75;;;19.70;74.40;;;;;;5069737;28;20471;-89
2021/06/27 01:49:15;;;;;;;15.65;11.95;;;19.70;73.60;;;;;;5069298;28;20024;-88
2021/06/27 01:51:41;;;;;;;27.00;22.20;;;19.70;73.70;;;;;;5069233;28;20487;-87
2021/06/27 01:54:07;;;;;;;17.67;14.88;;;19.60;74.60;;;;;;5067679;28;20154;-88
2021/06/27 01:56:34;;;;;;;16.35;14.63;;;19.60;74.20;;;;;;5072780;28;20016;-89
2021/06/27 01:59:03;;;;;;;21.20;17.27;;;19.60;74.10;;;;;;5071135;28;20125;-88
2021/06/27 02:01:31;;;;;;;20.83;17.02;;;19.60;74.40;;;;;;5069466;28;20017;-88
2021/06/27 02:03:57;;;;;;;16.63;13.98;;;19.50;74.80;;;;;;5072661;28;20589;-87
2021/06/27 02:06:24;;;;;;;15.20;12.52;;;19.50;74.40;;;;;;5072911;28;20127;-89
2021/06/27 02:08:51;;;;;;;19.48;16.08;;;19.50;74.20;;;;;;5070286;28;20374;-87
2021/06/27 02:11:19;;;;;;;18.13;14.48;;;19.50;74.20;;;;;;5072779;28;20041;-87
2021/06/27 02:13:46;;;;;;;19.00;16.55;;;19.50;74.20;;;;;;5072696;28;20027;-87
2021/06/27 02:16:12;;;;;;;17.25;14.45;;;19.40;74.80;;;;;;5073057;28;20047;-88
2021/06/27 02:18:40;;;;;;;20.67;17.73;;;19.40;74.70;;;;;;5072515;28;20443;-88
2021/06/27 02:21:18;;;;;;;15.10;12.50;;;19.40;75.10;;;;;;5072279;28;20081;-88
2021/06/27 02:23:44;;;;;;;16.55;13.55;;;19.40;75.00;;;;;;5069151;28;20475;-89
2021/06/27 02:26:10;;;;;;;14.60;12.73;;;19.40;75.10;;;;;;5072504;28;20420;-87
2021/06/27 02:28:35;;;;;;;22.05;18.67;;;19.40;75.00;;;;;;5070760;28;20028;-87
2021/06/27 02:31:03;;;;;;;21.00;17.92;;;19.30;76.00;;;;;;5068763;28;20436;-87
2021/06/27 02:33:30;;;;;;;21.85;17.40;;;19.30;76.00;;;;;;5072190;28;20025;-87
2021/06/27 02:35:56;;;;;;;17.55;13.68;;;19.20;76.00;;;;;;5072038;28;20632;-87
2021/06/27 02:38:22;;;;;;;16.50;13.80;;;19.30;75.70;;;;;;5072306;28;20548;-87
2021/06/27 02:40:48;;;;;;;17.17;13.77;;;19.30;75.40;;;;;;5071233;28;20021;-87
2021/06/27 02:43:17;;;;;;;17.17;13.60;;;19.30;75.40;;;;;;5071024;28;20055;-87
2021/06/27 02:45:43;;;;;;;17.48;14.88;;;19.30;75.10;;;;;;5072350;28;20040;-88
2021/06/27 02:48:09;;;;;;;18.27;14.40;;;19.30;75.20;;;;;;5072311;28;20025;-89
2021/06/27 02:50:36;;;;;;;25.30;20.67;;;19.20;75.70;;;;;;5069613;28;20033;-87
2021/06/27 02:53:03;;;;;;;19.45;16.27;;;19.20;76.40;;;;;;5070811;28;20070;-88
2021/06/27 02:55:29;;;;;;;18.65;15.57;;;19.20;76.20;;;;;;5070989;28;20021;-90
2021/06/27 02:57:54;;;;;;;19.80;15.80;;;19.20;76.00;;;;;;5072683;28;20108;-87
2021/06/27 03:00:21;;;;;;;19.88;15.30;;;19.10;76.20;;;;;;5072451;28;20024;-87
2021/06/27 03:02:48;;;;;;;16.65;13.48;;;19.20;76.10;;;;;;5070596;28;20024;-87
2021/06/27 03:05:15;;;;;;;15.00;11.85;;;19.20;75.80;;;;;;5070696;28;20991;-87
2021/06/27 03:07:42;;;;;;;15.93;13.05;;;19.20;75.60;;;;;;5071543;28;20505;-86
2021/06/27 03:10:12;;;;;;;16.85;13.68;;;19.20;75.50;;;;;;5071281;28;20044;-87
2021/06/27 03:12:38;;;;;;;16.45;12.60;;;19.20;75.40;;;;;;5071243;28;20032;-87
2021/06/27 03:15:06;;;;;;;20.27;16.48;;;19.20;75.30;;;;;;5071775;28;20043;-89
2021/06/27 03:17:32;;;;;;;17.23;14.00;;;19.10;76.00;;;;;;5072230;28;20036;-88
2021/06/27 03:19:57;;;;;;;17.63;14.85;;;19.10;76.20;;;;;;5071513;28;20081;-88
2021/06/27 03:22:23;;;;;;;18.63;15.63;;;19.10;76.60;;;;;;5072203;28;20048;-87
2021/06/27 03:24:48;;;;;;;20.77;16.58;;;19.10;76.00;;;;;;5072037;28;20043;-88
2021/06/27 03:27:14;;;;;;;25.13;19.77;;;19.10;76.20;;;;;;5069898;28;20057;-88
2021/06/27 03:29:41;;;;;;;15.52;11.63;;;19.10;76.60;;;;;;5070704;28;20020;-88
2021/06/27 03:32:07;;;;;;;14.48;12.18;;;19.00;76.50;;;;;;5070814;28;20025;-87
2021/06/27 03:34:32;;;;;;;17.25;13.35;;;19.00;76.40;;;;;;5071592;28;20016;-89
2021/06/27 03:36:58;;;;;;;24.23;18.85;;;19.00;76.50;;;;;;5068543;28;20032;-88
2021/06/27 03:39:23;;;;;;;16.33;12.85;;;19.00;76.90;;;;;;5070683;28;20029;-90
2021/06/27 03:41:53;;;;;;;17.45;13.77;;;19.00;76.90;;;;;;5070335;28;20298;-88
2021/06/27 03:44:19;;;;;;;19.27;15.43;;;19.10;76.60;;;;;;5071027;28;20055;-90
2021/06/27 03:46:45;;;;;;;22.25;17.67;;;19.10;76.70;;;;;;5072253;28;20407;-91
2021/06/27 03:49:11;;;;;;;20.23;16.70;;;19.10;76.80;;;;;;5072498;28;20038;-90
2021/06/27 03:51:37;;;;;;;25.98;21.33;;;19.10;76.70;;;;;;5070959;28;20031;-91
2021/06/27 03:54:03;;;;;;;20.75;16.95;;;19.00;77.30;;;;;;5072217;28;20379;-89
2021/06/27 03:56:28;;;;;;;19.23;15.70;;;19.10;77.20;;;;;;5071539;28;20012;-88
2021/06/27 03:58:54;;;;;;;23.75;19.27;;;19.10;76.80;;;;;;5072032;28;20021;-90
2021/06/27 04:01:20;;;;;;;22.33;18.27;;;19.20;76.60;;;;;;5066016;28;20032;-90
2021/06/27 04:03:46;;;;;;;21.08;17.05;;;19.20;76.60;;;;;;5071092;28;20530;-88
2021/06/27 04:06:12;;;;;;;18.30;15.48;;;19.20;76.50;;;;;;5069207;28;20029;-88
2021/06/27 04:08:37;;;;;;;20.92;17.48;;;19.20;76.30;;;;;;5063535;28;20024;-88
2021/06/27 04:11:03;;;;;;;22.20;18.73;;;19.20;76.20;;;;;;5069175;28;20025;-89
2021/06/27 04:13:31;;;;;;;22.17;18.88;;;19.30;76.00;;;;;;5085899;28;20077;-86
2021/06/27 04:15:58;;;;;;;24.63;19.33;;;19.30;76.10;;;;;;5070355;28;20055;-86
2021/06/27 04:18:24;;;;;;;20.60;15.93;;;19.20;76.20;;;;;;5067813;28;20483;-86
2021/06/27 04:20:51;;;;;;;17.70;14.88;;;19.20;76.10;;;;;;5070296;28;20462;-87
2021/06/27 04:23:17;;;;;;;22.48;16.17;;;19.30;76.00;;;;;;5067233;28;20441;-87
2021/06/27 04:25:43;;;;;;;18.02;15.10;;;19.30;76.00;;;;;;5066341;28;20029;-88
2021/06/27 04:28:09;;;;;;;20.20;16.63;;;19.30;75.80;;;;;;5068646;28;20446;-87
2021/06/27 04:30:36;;;;;;;15.82;11.77;;;19.30;76.30;;;;;;5064327;28;20052;-87
2021/06/27 04:33:03;;;;;;;18.00;14.93;;;19.40;75.30;;;;;;5069485;28;20055;-87
2021/06/27 04:35:29;;;;;;;12.55;10.43;;;19.50;75.30;;;;;;5069939;28;20482;-88
2021/06/27 04:37:55;;;;;;;20.27;16.67;;;19.50;75.00;;;;;;5084996;28;20435;-87
2021/06/27 04:40:20;;;;;;;18.02;14.27;;;19.60;74.80;;;;;;5068994;28;20047;-86
2021/06/27 04:42:46;;;;;;;17.95;14.90;;;19.60;74.60;;;;;;5066755;28;20044;-87
2021/06/27 04:45:13;;;;;;;13.40;11.85;;;19.60;74.50;;;;;;5066940;28;20081;-86
2021/06/27 04:47:39;;;;;;;13.13;10.90;;;19.70;74.30;;;;;;5068149;28;20162;-85
2021/06/27 04:50:06;;;;;;;13.45;9.95;;;19.90;74.00;;;;;;5068531;28;20083;-87
2021/06/27 04:52:33;;;;;;;11.95;10.02;;;20.00;73.50;;;;;;5067947;28;20498;-86
2021/06/27 04:54:59;;;;;;;19.38;17.05;;;20.20;73.10;;;;;;5067341;28;20024;-87
2021/06/27 04:57:25;;;;;;;15.20;12.80;;;20.40;72.50;;;;;;5061821;28;20028;-86
2021/06/27 04:59:50;;;;;;;15.00;12.00;;;20.70;71.70;;;;;;5068749;28;20131;-87
2021/06/27 05:02:16;;;;;;;13.82;12.00;;;21.00;70.90;;;;;;5067781;28;20063;-87
2021/06/27 05:04:41;;;;;;;18.27;14.13;;;21.10;70.20;;;;;;5070326;28;20033;-88
2021/06/27 05:07:07;;;;;;;14.85;12.88;;;21.30;69.50;;;;;;5069873;28;20035;-87
2021/06/27 05:09:32;;;;;;;13.07;10.98;;;21.30;69.20;;;;;;5069676;28;20035;-86
2021/06/27 05:11:58;;;;;;;14.60;12.48;;;21.20;69.10;;;;;;5069287;28;20028;-88
2021/06/27 05:14:23;;;;;;;20.92;16.85;;;21.00;69.20;;;;;;5067815;28;20024;-87
2021/06/27 05:16:49;;;;;;;17.80;14.52;;;20.90;69.40;;;;;;5069206;28;20517;-88
2021/06/27 05:19:14;;;;;;;12.68;10.85;;;20.70;70.00;;;;;;5069876;28;20500;-87
2021/06/27 05:21:40;;;;;;;14.95;13.23;;;20.70;70.30;;;;;;5069426;28;20043;-89
2021/06/27 05:24:06;;;;;;;10.00;8.18;;;20.70;70.30;;;;;;5069571;28;20108;-88
2021/06/27 05:26:31;;;;;;;12.32;9.85;;;20.80;70.40;;;;;;5068801;28;20142;-88
2021/06/27 05:28:57;;;;;;;13.77;11.40;;;20.90;70.20;;;;;;5066747;28;20021;-88
2021/06/27 05:31:23;;;;;;;13.73;11.32;;;20.90;69.90;;;;;;5068765;28;20126;-88
2021/06/27 05:33:48;;;;;;;8.93;7.53;;;21.00;69.80;;;;;;5068922;28;20031;-88
2021/06/27 05:36:14;;;;;;;10.50;8.73;;;21.30;69.30;;;;;;5066860;28;20490;-88
2021/06/27 05:38:40;;;;;;;12.07;9.45;;;21.50;68.80;;;;;;5070236;28;20027;-88
2021/06/27 05:41:06;;;;;;;16.25;13.27;;;21.60;68.20;;;;;;5069516;28;20024;-88
2021/06/27 05:43:32;;;;;;;17.67;14.57;;;21.60;67.50;;;;;;5069121;28;20020;-87
2021/06/27 05:45:58;;;;;;;14.38;12.88;;;21.40;67.00;;;;;;5069654;28;20467;-87
2021/06/27 05:48:23;;;;;;;14.15;12.40;;;21.30;67.30;;;;;;5067952;28;20029;-88
2021/06/27 05:50:49;;;;;;;12.23;10.82;;;21.30;67.40;;;;;;5068263;28;20122;-87
2021/06/27 05:53:15;;;;;;;18.30;14.82;;;21.30;67.50;;;;;;5064151;28;20058;-88
2021/06/27 05:55:41;;;;;;;15.95;13.52;;;21.20;67.40;;;;;;5064561;28;20052;-88
2021/06/27 05:58:07;;;;;;;12.57;11.25;;;21.20;67.30;;;;;;5061995;28;20394;-86
2021/06/27 06:00:33;;;;;;;14.07;11.50;;;21.20;67.60;;;;;;5066205;28;20017;-87
2021/06/27 06:02:58;;;;;;;13.82;12.10;;;21.30;67.50;;;;;;5061756;28;20051;-87
2021/06/27 06:05:24;;;;;;;12.70;10.10;;;21.30;67.30;;;;;;5066084;28;20120;-86
2021/06/27 06:07:51;;;;;;;14.07;12.15;;;21.30;67.40;;;;;;5066608;28;20017;-87
2021/06/27 06:10:17;;;;;;;14.27;11.23;;;21.30;67.20;;;;;;5063699;28;20111;-86
2021/06/27 06:12:42;;;;;;;17.83;15.00;;;21.40;67.20;;;;;;5067164;28;20024;-87
2021/06/27 06:15:08;;;;;;;13.27;11.43;;;21.30;67.20;;;;;;5064056;28;20025;-88
2021/06/27 06:17:34;;;;;;;11.57;10.25;;;21.20;67.50;;;;;;5063041;28;20386;-86
2021/06/27 06:19:59;;;;;;;10.82;8.88;;;21.20;67.60;;;;;;5059720;28;20017;-88
2021/06/27 06:22:25;;;;;;;13.43;11.35;;;21.30;67.70;;;;;;5065381;28;20032;-87
2021/06/27 06:24:52;;;;;;;16.20;14.50;;;21.30;67.70;;;;;;5064853;28;20115;-88
2021/06/27 06:27:17;;;;;;;13.77;11.98;;;21.20;67.10;;;;;;5065032;28;20475;-88
2021/06/27 06:29:43;;;;;;;14.57;11.77;;;21.10;67.40;;;;;;5065102;28;20039;-88
2021/06/27 06:32:08;;;;;;;12.02;9.80;;;21.10;67.60;;;;;;5068748;28;20020;-87
2021/06/27 06:34:34;;;;;;;15.32;13.73;;;21.10;67.80;;;;;;5069626;28;20032;-89
2021/06/27 06:37:00;;;;;;;15.23;13.25;;;21.10;68.40;;;;;;5058996;28;20033;-87
2021/06/27 06:39:25;;;;;;;12.57;10.65;;;21.10;68.00;;;;;;5065737;28;20029;-87
2021/06/27 06:41:51;;;;;;;16.85;14.23;;;21.00;68.10;;;;;;5067314;28;20037;-88
2021/06/27 06:44:16;;;;;;;13.82;11.75;;;21.00;68.20;;;;;;5068174;28;20407;-87
2021/06/27 06:46:42;;;;;;;16.80;14.20;;;21.00;68.30;;;;;;5061686;28;20407;-88
2021/06/27 06:49:08;;;;;;;16.63;14.20;;;21.00;68.30;;;;;;5070086;28;20028;-87
2021/06/27 06:51:34;;;;;;;12.20;10.82;;;21.20;68.10;;;;;;5068060;28;20474;-84
2021/06/27 06:53:59;;;;;;;9.63;8.63;;;21.30;67.90;;;;;;5070382;28;20022;-87
2021/06/27 06:56:25;;;;;;;9.40;7.45;;;21.60;67.50;;;;;;5067239;28;20087;-86
2021/06/27 06:58:51;;;;;;;13.10;11.05;;;21.80;67.00;;;;;;5070907;28;20025;-84
2021/06/27 07:01:18;;;;;;;15.35;12.93;;;21.90;66.20;;;;;;5066925;28;20048;-88
2021/06/27 07:03:46;;;;;;;11.52;9.77;;;22.00;66.00;;;;;;5070826;28;20523;-88
2021/06/27 07:06:12;;;;;;;14.32;11.93;;;22.10;65.80;;;;;;5067071;28;20040;-88
2021/06/27 07:08:38;;;;;;;16.10;14.25;;;22.20;65.40;;;;;;5070793;28;20016;-89
2021/06/27 07:11:04;;;;;;;10.15;8.82;;;22.20;65.00;;;;;;5069671;28;20020;-91
2021/06/27 07:13:31;;;;;;;15.52;11.32;;;22.40;65.00;;;;;;5067692;28;20029;-88
2021/06/27 07:15:57;;;;;;;13.57;11.85;;;22.60;64.70;;;;;;5070249;28;20021;-89
2021/06/27 07:18:23;;;;;;;15.52;13.70;;;22.80;64.40;;;;;;5094128;28;20020;-87
2021/06/27 07:20:49;;;;;;;11.77;10.48;;;22.80;63.60;;;;;;5070257;28;20028;-89
2021/06/27 07:23:15;;;;;;;13.95;11.23;;;22.90;63.70;;;;;;5068503;28;20445;-89
2021/06/27 07:25:42;;;;;;;8.93;7.80;;;23.00;63.30;;;;;;5072084;28;20032;-93
2021/06/27 07:28:08;;;;;;;11.77;10.15;;;23.10;63.30;;;;;;5069765;28;20024;-91
2021/06/27 07:30:34;;;;;;;9.82;7.80;;;23.20;62.90;;;;;;5073384;28;20028;-91
2021/06/27 07:33:00;;;;;;;10.25;8.00;;;23.30;62.80;;;;;;5073719;28;20024;-94
2021/06/27 07:35:28;;;;;;;12.07;10.82;;;23.30;62.60;;;;;;5073469;28;20028;-88
2021/06/27 07:37:54;;;;;;;14.07;11.73;;;23.30;62.20;;;;;;5072113;28;20025;-90
2021/06/27 07:40:20;;;;;;;11.23;9.50;;;23.20;62.30;;;;;;5068885;28;20498;-89
2021/06/27 07:42:46;;;;;;;11.85;10.40;;;23.30;62.50;;;;;;5067892;28;20066;-89
2021/06/27 07:45:13;;;;;;;13.60;10.95;;;23.40;62.40;;;;;;5067388;28;20028;-90
2021/06/27 07:47:38;;;;;;;11.27;9.80;;;23.40;61.90;;;;;;5071436;28;20024;-89
2021/06/27 07:50:05;;;;;;;13.05;10.32;;;23.40;62.10;;;;;;5073825;28;20374;-90
2021/06/27 07:52:31;;;;;;;10.45;8.68;;;23.60;62.10;;;;;;5069718;28;20453;-89
2021/06/27 07:54:57;;;;;;;9.88;8.85;;;23.60;61.90;;;;;;5073523;28;20111;-91
2021/06/27 07:57:22;;;;;;;9.30;8.32;;;23.70;61.90;;;;;;5071415;28;20017;-89
2021/06/27 07:59:49;;;;;;;10.30;8.93;;;23.80;61.70;;;;;;5071165;28;20028;-89
2021/06/27 08:02:15;;;;;;;10.70;9.38;;;23.90;61.50;;;;;;5069719;28;20414;-91
2021/06/27 08:04:40;;;;;;;10.23;9.13;;;23.90;61.20;;;;;;5073179;28;20025;-91
2021/06/27 08:07:06;;;;;;;10.27;9.05;;;23.90;61.30;;;;;;5072948;28;20033;-91
2021/06/27 08:09:31;;;;;;;9.38;8.32;;;24.10;61.40;;;;;;5071213;28;20051;-91
2021/06/27 08:11:57;;;;;;;9.50;8.25;;;24.10;61.00;;;;;;5071762;28;20056;-89
2021/06/27 08:14:23;;;;;;;7.93;6.25;;;24.10;60.90;;;;;;5071931;28;20017;-89
2021/06/27 08:16:48;;;;;;;9.38;7.57;;;24.20;60.90;;;;;;5071808;28;20016;-96
2021/06/27 08:19:14;;;;;;;7.55;6.55;;;24.20;60.50;;;;;;5105580;28;20017;-93
2021/06/27 08:21:41;;;;;;;11.52;10.25;;;24.40;60.40;;;;;;5072959;28;20038;-91
2021/06/27 08:24:07;;;;;;;9.57;8.55;;;24.50;59.80;;;;;;5072981;28;20029;-91
2021/06/27 08:26:33;;;;;;;7.95;7.15;;;24.40;59.70;;;;;;5072430;28;20031;-92
2021/06/27 08:28:58;;;;;;;10.68;9.57;;;24.50;60.00;;;;;;5071277;28;20559;-90
2021/06/27 08:31:25;;;;;;;10.85;9.63;;;24.60;59.60;;;;;;5070539;28;20475;-89
2021/06/27 08:33:51;;;;;;;9.75;8.45;;;24.60;59.60;;;;;;5072388;28;20016;-89
2021/06/27 08:36:17;;;;;;;10.30;8.98;;;24.50;59.30;;;;;;5064522;28;20110;-89
2021/06/27 08:38:42;;;;;;;8.43;7.18;;;24.50;59.50;;;;;;5064940;28;20031;-87
2021/06/27 08:41:08;;;;;;;9.85;8.65;;;24.60;59.50;;;;;;5063888;28;20036;-87
2021/06/27 08:43:35;;;;;;;9.23;8.23;;;24.70;59.30;;;;;;5070361;28;20111;-91
2021/06/27 08:46:24;;;;;;;11.55;10.35;;;24.70;59.00;;;;;;5071261;28;20032;-91
2021/06/27 08:48:52;;;;;;;8.70;7.57;;;24.80;58.60;;;;;;5069843;28;20378;-89
2021/06/27 08:51:18;;;;;;;9.50;8.50;;;24.90;58.40;;;;;;5068072;28;20034;-89
2021/06/27 08:53:44;;;;;;;10.68;9.57;;;25.00;57.90;;;;;;5062272;28;20028;-90
2021/06/27 08:56:11;;;;;;;9.73;8.27;;;25.00;57.20;;;;;;5069164;28;20120;-91
2021/06/27 08:58:46;;;;;;;7.55;6.57;;;24.90;57.70;;;;;;5071910;28;20048;-90
2021/06/27 09:01:21;;;;;;;4.78;4.05;;;25.00;57.80;;;;;;5081656;28;20063;-92
2021/06/27 09:03:47;;;;;;;5.15;4.57;;;25.20;57.80;;;;;;5067827;28;20571;-91
2021/06/27 09:06:28;;;;;;;8.90;8.00;;;25.40;57.80;;;;;;5065890;28;20039;-91
2021/06/27 09:09:17;;;;;;;6.72;6.03;;;25.40;56.60;;;;;;5059140;28;20025;-89
2021/06/27 09:12:02;;;;;;;5.97;5.18;;;25.20;56.40;;;;;;5061177;28;20017;-90
2021/06/27 09:14:37;;;;;;;6.97;6.20;;;25.20;57.00;;;;;;5069333;28;20483;-88
2021/06/27 09:17:13;;;;;;;6.30;5.05;;;25.30;57.00;;;;;;5066039;28;20532;-87
2021/06/27 09:19:54;;;;;;;7.00;6.00;;;25.30;57.30;;;;;;5063867;28;20028;-90
2021/06/27 09:22:26;;;;;;;5.60;5.00;;;25.20;57.60;;;;;;5063726;28;20116;-92
2021/06/27 09:24:52;;;;;;;10.00;8.63;;;25.30;57.90;;;;;;5066410;28;20039;-92
2021/06/27 09:27:23;;;;;;;10.43;9.32;;;25.40;57.90;;;;;;5069449;28;20024;-91
2021/06/27 09:29:55;;;;;;;9.63;7.53;;;25.30;57.70;;;;;;5071093;28;20107;-90
2021/06/27 09:32:23;;;;;;;8.90;7.87;;;25.20;58.10;;;;;;5066634;28;20313;-89
2021/06/27 09:34:49;;;;;;;11.40;9.93;;;25.30;58.10;;;;;;5069443;28;20025;-89
2021/06/27 09:37:25;;;;;;;9.95;8.93;;;25.20;57.60;;;;;;5065289;28;20039;-90
2021/06/27 09:39:56;;;;;;;9.05;8.15;;;25.10;58.10;;;;;;5068742;28;20021;-90
2021/06/27 09:42:21;;;;;;;7.35;6.55;;;25.10;58.10;;;;;;5067979;28;20481;-90
2021/06/27 09:45:08;;;;;;;9.00;7.20;;;25.40;58.30;;;;;;5064697;28;20039;-89
2021/06/27 09:47:34;;;;;;;9.13;8.18;;;25.50;58.20;;;;;;5068277;28;20118;-90
2021/06/27 09:50:27;;;;;;;8.13;6.68;;;25.70;57.00;;;;;;5069887;28;20031;-91
2021/06/27 09:52:52;;;;;;;8.40;7.60;;;25.70;57.00;;;;;;5067981;28;20029;-90
2021/06/27 09:55:19;;;;;;;7.95;6.72;;;25.70;55.90;;;;;;5069630;28;20497;-91
2021/06/27 09:57:45;;;;;;;9.63;8.63;;;25.70;56.10;;;;;;5069118;28;20112;-93
2021/06/27 10:00:32;;;;;;;7.00;6.30;;;25.80;56.10;;;;;;5068943;28;20155;-89
2021/06/27 10:03:02;;;;;;;7.20;6.50;;;25.70;56.10;;;;;;5063325;28;20033;-91
2021/06/27 10:05:28;;;;;;;9.60;7.05;;;25.80;55.80;;;;;;5067169;28;20028;-91
2021/06/27 10:07:56;;;;;;;6.20;5.60;;;25.80;55.80;;;;;;5063616;28;20027;-89
2021/06/27 10:10:28;;;;;;;9.20;8.05;;;26.00;56.10;;;;;;5065917;28;20036;-90
2021/06/27 10:12:55;;;;;;;4.85;4.35;;;26.20;55.70;;;;;;5061189;28;20139;-87
2021/06/27 10:15:20;;;;;;;4.65;4.10;;;26.40;55.90;;;;;;5068124;28;20029;-90
2021/06/27 10:17:49;;;;;;;5.10;4.60;;;26.60;55.60;;;;;;5070979;28;20025;-95
2021/06/27 10:20:16;;;;;;;4.70;4.20;;;26.70;54.80;;;;;;5073298;28;20386;-90
2021/06/27 10:22:43;;;;;;;7.97;6.72;;;26.70;54.40;;;;;;5071709;28;20134;-91
2021/06/27 10:25:11;;;;;;;5.95;5.35;;;26.60;52.40;;;;;;5097876;28;20037;-91
2021/06/27 10:27:37;;;;;;;4.97;4.47;;;26.30;52.30;;;;;;5069733;28;20155;-91
2021/06/27 10:30:07;;;;;;;6.20;5.60;;;26.30;53.00;;;;;;5071563;28;20107;-92
2021/06/27 10:32:42;;;;;;;6.30;5.25;;;26.30;52.80;;;;;;5085406;28;20114;-91
2021/06/27 10:35:13;;;;;;;5.72;5.03;;;26.30;52.50;;;;;;5067122;28;20044;-91
2021/06/27 10:37:48;;;;;;;4.75;4.30;;;26.30;52.50;;;;;;5064491;28;20371;-91
2021/06/27 10:40:16;;;;;;;5.72;5.20;;;26.30;52.80;;;;;;5066669;28;20435;-93
2021/06/27 10:42:56;;;;;;;5.78;5.18;;;26.30;52.80;;;;;;5068838;28;20012;-92
2021/06/27 10:45:38;;;;;;;6.85;6.07;;;26.30;52.10;;;;;;5067713;28;20067;-89
2021/06/27 10:48:33;;;;;;;6.53;5.65;;;26.20;51.90;;;;;;5072693;28;20074;-93
2021/06/27 10:51:13;;;;;;;6.25;4.63;;;26.20;52.50;;;;;;5094102;28;20071;-92
2021/06/27 10:54:09;;;;;;;5.32;4.82;;;26.20;52.50;;;;;;5063485;28;20044;-94
2021/06/27 10:57:06;;;;;;;7.60;6.80;;;26.20;52.50;;;;;;5090006;28;20025;-94
2021/06/27 11:02:39;;;;;;;5.63;5.13;;;26.20;53.00;;;;;;5062590;28;20048;-93
2021/06/27 11:05:32;;;;;;;5.60;4.85;;;26.20;53.20;;;;;;5072431;28;20115;-92
2021/06/27 11:08:00;;;;;;;5.05;4.53;;;26.30;53.50;;;;;;5083359;28;20120;-92
2021/06/27 11:10:28;;;;;;;5.00;4.32;;;26.50;53.30;;;;;;5073586;28;20039;-94
2021/06/27 11:12:56;;;;;;;6.35;5.50;;;26.70;53.00;;;;;;5073455;28;20013;-90
2021/06/27 11:15:23;;;;;;;5.07;4.57;;;26.80;52.70;;;;;;5072522;28;20071;-91
2021/06/27 11:17:53;;;;;;;6.57;5.93;;;26.70;53.60;;;;;;5072213;28;20024;-90
2021/06/27 11:20:19;;;;;;;6.60;5.90;;;26.80;52.10;;;;;;5069868;28;20024;-91
2021/06/27 11:22:47;;;;;;;7.00;5.93;;;26.70;51.10;;;;;;5072707;28;20024;-92
2021/06/27 11:25:43;;;;;;;5.93;5.30;;;26.60;51.00;;;;;;5072407;28;20092;-88
2021/06/27 11:28:31;;;;;;;4.28;3.88;;;26.60;51.30;;;;;;5073508;28;20470;-92
2021/06/27 11:31:26;;;;;;;5.47;4.97;;;26.90;52.00;;;;;;5069242;28;20029;-92
2021/06/27 11:34:19;;;;;;;5.03;4.53;;;27.10;51.30;;;;;;5084519;28;20028;-93
2021/06/27 11:36:45;;;;;;;5.30;4.75;;;27.30;51.60;;;;;;5074255;28;20055;-93
2021/06/27 11:39:43;;;;;;;5.50;4.90;;;27.50;51.00;;;;;;5073477;28;20475;-93
2021/06/27 11:42:27;;;;;;;4.30;3.90;;;27.50;50.70;;;;;;5088065;28;20024;-93
2021/06/27 11:45:07;;;;;;;5.20;4.70;;;27.80;50.40;;;;;;5106901;27;20064;-93
2021/06/27 11:47:51;;;;;;;4.40;4.00;;;27.90;49.20;;;;;;5073729;28;20035;-93
2021/06/27 11:50:17;;;;;;;4.95;4.55;;;28.00;49.20;;;;;;5072896;28;20036;-93
2021/06/27 11:52:44;;;;;;;5.28;4.72;;;28.00;48.50;;;;;;5073657;28;20543;-92
2021/06/27 11:55:13;;;;;;;5.40;4.90;;;27.80;47.00;;;;;;5073643;28;20158;-91
2021/06/27 11:57:40;;;;;;;4.15;3.70;;;27.70;45.20;;;;;;5072664;28;20021;-91
2021/06/27 12:00:08;;;;;;;4.53;4.13;;;27.60;46.70;;;;;;5072627;28;20043;-90
2021/06/27 12:02:36;;;;;;;5.63;4.03;;;27.70;45.40;;;;;;5065184;28;20432;-88
2021/06/27 12:05:03;;;;;;;4.28;3.78;;;27.70;45.20;;;;;;5069948;28;20025;-91
2021/06/27 12:07:39;;;;;;;4.35;3.95;;;27.80;45.40;;;;;;5070080;28;20098;-89
2021/06/27 12:10:17;;;;;;;4.45;4.05;;;28.00;44.80;;;;;;5070985;28;20523;-87
2021/06/27 12:12:48;;;;;;;4.80;4.40;;;27.90;44.50;;;;;;5064588;28;20040;-88
2021/06/27 12:15:16;;;;;;;5.07;4.07;;;27.90;43.80;;;;;;5069788;28;20261;-90
2021/06/27 12:17:54;;;;;;;4.15;3.75;;;27.80;43.60;;;;;;5071672;28;20024;-92
2021/06/27 12:20:29;;;;;;;4.32;3.83;;;27.80;44.10;;;;;;5072610;28;20032;-94
2021/06/27 12:23:06;;;;;;;5.72;4.20;;;27.90;43.60;;;;;;5072532;28;20020;-94
2021/06/27 12:25:45;;;;;;;4.05;3.72;;;28.00;42.90;;;;;;5078146;28;20032;-94
2021/06/27 12:28:29;;;;;;;4.68;3.95;;;28.00;43.20;;;;;;5071676;28;20078;-91
2021/06/27 12:30:56;;;;;;;4.22;3.83;;;28.10;43.70;;;;;;5071781;28;20025;-92
2021/06/27 12:33:29;;;;;;;4.00;3.60;;;28.20;43.70;;;;;;5071754;28;20025;-92
2021/06/27 12:36:01;;;;;;;4.45;4.05;;;28.40;43.70;;;;;;5071225;28;20103;-91
2021/06/27 12:38:27;;;;;;;;;;;28.70;43.20;;;;;;5071083;28;20075;-91
2021/06/27 12:40:57;;;;;;;4.50;3.92;;;28.70;43.20;;;;;;5071093;28;20167;-92
2021/06/27 12:43:36;;;;;;;4.00;3.70;;;28.60;42.50;;;;;;5070358;28;20020;-92
2021/06/27 12:46:15;;;;;;;4.20;3.78;;;28.60;43.00;;;;;;5069743;28;20075;-92